• Join FlightAware (Why Join?)
  • Login
  • US Flag 
09:24AM EDT


 

Airport Tracker/Info


-or-


 

Live Flight TrackerFlight Track Log ✈ N990CB ✈ 05-Jul-2013 ✈ KILG - 1N7

Flight Track Log - Related Links

Times and Time Zones

All times are in EDT time to prevent confusion due to time zone crossing. See the N990CB flight status page for this flight to view local times or setup timezone preferences in your user account.

Time Position Orientation Groundspeed Altitude Reporting Facility
EDT Latitude Longitude Course Direction KTS MPH feet Rate Location/Type
12:43PM 39.6833 -75.5500 14° North 177 204 2,500  Level Philadelphia TRACON
12:44PM 39.7333 -75.5333 14° North 184 212 3,900 1,680 Climbing Philadelphia TRACON
12:45PM 39.7833 -75.5167 14° North 168 193 5,900 1,920 Climbing Philadelphia TRACON
12:46PM 39.8167 -75.5000 21° North 167 192 7,800 1,800 Climbing Philadelphia TRACON
12:47PM 39.8667 -75.4833 14° North 167 192 9,600 1,620 Climbing Philadelphia TRACON
12:48PM 39.9167 -75.4500 27° Northeast 176 203 11,300 900 Climbing Philadelphia TRACON
12:49PM 39.9667 -75.4333 14° North 237 273 11,500 60 Climbing Philadelphia TRACON
12:50PM 40.0333 -75.4000 21° North 255 293 11,500  Level Philadelphia TRACON
12:51PM 40.1000 -75.3833 11° North 253 291 11,500  Level Philadelphia TRACON
12:52PM 40.1667 -75.3500 21° North 253 291 11,500  Level Philadelphia TRACON
12:53PM 40.2333 -75.3167 21° North 251 289 11,500  Level Philadelphia TRACON
12:54PM 40.3000 -75.2833 21° North 252 290 11,500  Level Philadelphia TRACON
12:55PM 40.3467 -75.2697 13° North 273 314 11,500  Level New York Center
12:56PM 40.4122 -75.2414 18° North 272 313 11,500  Level New York Center
12:57PM 40.4822 -75.2106 19° North 254 292 11,500  Level New York Center
12:58PM 40.5481 -75.1819 18° North 247 284 11,500 -180 Level New York Center
12:59PM 40.6094 -75.1558 18° North 247 284 11,200 -1,260 Descending New York Center
01:00PM 40.6642 -75.1347 16° North 230 265 9,100 -1,980 Descending New York Center
01:01PM 40.7400 -75.1150 11° North 246 283 7,300 -2,040 Descending New York Center
01:02PM 40.8053 -75.0944 13° North 241 277 5,000 -2,400 Descending New York Center
01:03PM 40.8708 -75.0683 17° North 241 277 2,600 -1,560 Descending New York Center
01:04PM 40.9342 -75.0475 14° North 241 277 2,000 1,440 Descending New York Center
01:05PM 40.9975 -75.0242 16° North 241 277 5,500 1,680 Climbing New York Center
01:06PM 41.0608 -75.0006 16° North 241 277 5,500  Level New York Center
01:07PM 41.1242 -74.9769 16° North 241 277 5,500  Level New York Center
01:08PM 41.1494 -74.9675 16° North 241 277 5,500  Level New York Center
01:10PM 41.1494 -74.9675 360° North 241 277 5,500  Level New York Center
01:12PM 41.1494 -74.9675 360° North 241 277 5,500  Level New York Center